Terminal Aerodrome Forecast
Issued by NWS Caribou, ME

Home | Current Version | Previous Version | Text Only | Print | Product List | Glossary On
Versions: 1 2 3 4 5 6 7 8 9 10 11 12 13 14
000
FTUS41 KCAR 230500 RRA
TAFBGR
TAF
KBGR 230547Z 2306/2406 16006KT 6SM -RA BR OVC009
     FM231100 VRB03KT P6SM -RA BKN013 OVC020
     FM231600 02007KT P6SM BKN035 OVC050
     FM232300 34010KT 6SM -RA BKN015 OVC020=

USA.gov is the U.S. government's official web portal to all federal, state and local government web resources and services.